sensor_id;sensor_type;location;lat;lon;timestamp;P1;durP1;ratioP1;P2;durP2;ratioP2
25107;SDS011;13090;53.422;7.670;2024-01-15T00:03:12;8.88;;;1.40;;
25107;SDS011;13090;53.422;7.670;2024-01-15T00:08:52;7.32;;;1.50;;
25107;SDS011;13090;53.422;7.670;2024-01-15T00:14:32;3.25;;;0.80;;
25107;SDS011;13090;53.422;7.670;2024-01-15T00:20:14;2.17;;;0.73;;
25107;SDS011;13090;53.422;7.670;2024-01-15T00:25:54;6.22;;;0.82;;
25107;SDS011;13090;53.422;7.670;2024-01-15T00:31:35;6.65;;;0.90;;
25107;SDS011;13090;53.422;7.670;2024-01-15T00:37:17;4.90;;;0.95;;
25107;SDS011;13090;53.422;7.670;2024-01-15T00:42:57;6.15;;;1.15;;
25107;SDS011;13090;53.422;7.670;2024-01-15T00:48:37;8.25;;;1.40;;
25107;SDS011;13090;53.422;7.670;2024-01-15T00:54:20;6.57;;;1.58;;
25107;SDS011;13090;53.422;7.670;2024-01-15T01:00:00;9.13;;;1.17;;
25107;SDS011;13090;53.422;7.670;2024-01-15T01:05:45;12.00;;;1.80;;
25107;SDS011;13090;53.422;7.670;2024-01-15T01:11:27;7.55;;;1.50;;
25107;SDS011;13090;53.422;7.670;2024-01-15T01:17:07;11.40;;;1.92;;
25107;SDS011;13090;53.422;7.670;2024-01-15T01:22:47;9.13;;;1.40;;
25107;SDS011;13090;53.422;7.670;2024-01-15T01:28:29;12.48;;;1.75;;
25107;SDS011;13090;53.422;7.670;2024-01-15T01:34:09;14.45;;;1.85;;
25107;SDS011;13090;53.422;7.670;2024-01-15T01:39:50;18.90;;;2.20;;
25107;SDS011;13090;53.422;7.670;2024-01-15T01:45:32;12.23;;;2.03;;
25107;SDS011;13090;53.422;7.670;2024-01-15T01:51:13;17.05;;;2.08;;
25107;SDS011;13090;53.422;7.670;2024-01-15T01:56:54;15.13;;;2.83;;
25107;SDS011;13090;53.422;7.670;2024-01-15T02:02:36;15.18;;;1.90;;
25107;SDS011;13090;53.422;7.670;2024-01-15T02:08:16;7.57;;;1.50;;
25107;SDS011;13090;53.422;7.670;2024-01-15T02:13:57;8.00;;;1.55;;
25107;SDS011;13090;53.422;7.670;2024-01-15T02:19:39;14.15;;;1.70;;
25107;SDS011;13090;53.422;7.670;2024-01-15T02:25:21;9.25;;;1.42;;
25107;SDS011;13090;53.422;7.670;2024-01-15T02:36:34;19.75;;;2.58;;
25107;SDS011;13090;53.422;7.670;2024-01-15T02:42:15;12.48;;;2.15;;
25107;SDS011;13090;53.422;7.670;2024-01-15T02:47:55;12.52;;;1.85;;
25107;SDS011;13090;53.422;7.670;2024-01-15T02:53:36;21.48;;;2.65;;
25107;SDS011;13090;53.422;7.670;2024-01-15T02:59:17;17.33;;;2.22;;
25107;SDS011;13090;53.422;7.670;2024-01-15T03:04:58;11.27;;;2.28;;
25107;SDS011;13090;53.422;7.670;2024-01-15T03:10:39;16.23;;;2.28;;
25107;SDS011;13090;53.422;7.670;2024-01-15T03:16:20;11.18;;;1.95;;
25107;SDS011;13090;53.422;7.670;2024-01-15T03:22:00;11.05;;;1.88;;
25107;SDS011;13090;53.422;7.670;2024-01-15T03:27:41;17.27;;;2.85;;
25107;SDS011;13090;53.422;7.670;2024-01-15T03:33:23;21.35;;;1.95;;
25107;SDS011;13090;53.422;7.670;2024-01-15T03:39:03;9.32;;;1.42;;
25107;SDS011;13090;53.422;7.670;2024-01-15T03:44:44;11.52;;;1.58;;
25107;SDS011;13090;53.422;7.670;2024-01-15T03:50:26;8.98;;;1.58;;
25107;SDS011;13090;53.422;7.670;2024-01-15T03:56:06;10.40;;;1.45;;
25107;SDS011;13090;53.422;7.670;2024-01-15T04:01:50;11.10;;;2.13;;
25107;SDS011;13090;53.422;7.670;2024-01-15T04:07:32;13.52;;;2.05;;
25107;SDS011;13090;53.422;7.670;2024-01-15T04:13:12;17.90;;;2.22;;
25107;SDS011;13090;53.422;7.670;2024-01-15T04:18:52;19.55;;;3.00;;
25107;SDS011;13090;53.422;7.670;2024-01-15T04:24:34;16.83;;;2.42;;
25107;SDS011;13090;53.422;7.670;2024-01-15T04:30:14;11.20;;;1.85;;
25107;SDS011;13090;53.422;7.670;2024-01-15T04:35:55;14.27;;;2.10;;
25107;SDS011;13090;53.422;7.670;2024-01-15T04:41:37;4.53;;;1.58;;
25107;SDS011;13090;53.422;7.670;2024-01-15T04:47:17;5.88;;;1.10;;
25107;SDS011;13090;53.422;7.670;2024-01-15T04:52:58;12.25;;;1.58;;
25107;SDS011;13090;53.422;7.670;2024-01-15T04:58:40;7.97;;;1.33;;
25107;SDS011;13090;53.422;7.670;2024-01-15T05:04:20;4.60;;;1.33;;
25107;SDS011;13090;53.422;7.670;2024-01-15T05:10:00;9.48;;;1.48;;
25107;SDS011;13090;53.422;7.670;2024-01-15T05:15:42;6.18;;;1.13;;
25107;SDS011;13090;53.422;7.670;2024-01-15T05:21:23;7.15;;;0.88;;
25107;SDS011;13090;53.422;7.670;2024-01-15T05:27:03;4.22;;;1.10;;
25107;SDS011;13090;53.422;7.670;2024-01-15T05:32:45;8.75;;;1.15;;
25107;SDS011;13090;53.422;7.670;2024-01-15T05:38:26;4.78;;;1.05;;
25107;SDS011;13090;53.422;7.670;2024-01-15T05:44:07;7.22;;;1.50;;
25107;SDS011;13090;53.422;7.670;2024-01-15T05:49:49;5.80;;;1.05;;
25107;SDS011;13090;53.422;7.670;2024-01-15T05:55:29;12.57;;;1.92;;
25107;SDS011;13090;53.422;7.670;2024-01-15T06:01:10;8.43;;;1.25;;
25107;SDS011;13090;53.422;7.670;2024-01-15T06:06:52;9.38;;;1.48;;
25107;SDS011;13090;53.422;7.670;2024-01-15T06:12:32;10.57;;;1.35;;
25107;SDS011;13090;53.422;7.670;2024-01-15T06:18:13;8.90;;;1.20;;
25107;SDS011;13090;53.422;7.670;2024-01-15T06:23:55;7.15;;;1.13;;
25107;SDS011;13090;53.422;7.670;2024-01-15T06:29:37;7.45;;;1.58;;
25107;SDS011;13090;53.422;7.670;2024-01-15T06:35:18;7.57;;;1.63;;
25107;SDS011;13090;53.422;7.670;2024-01-15T06:41:03;12.50;;;1.85;;
25107;SDS011;13090;53.422;7.670;2024-01-15T06:46:44;13.57;;;2.15;;
25107;SDS011;13090;53.422;7.670;2024-01-15T06:52:25;16.67;;;1.75;;
25107;SDS011;13090;53.422;7.670;2024-01-15T06:58:07;13.93;;;2.35;;
25107;SDS011;13090;53.422;7.670;2024-01-15T07:03:47;17.58;;;2.15;;
25107;SDS011;13090;53.422;7.670;2024-01-15T07:09:28;13.85;;;2.17;;
25107;SDS011;13090;53.422;7.670;2024-01-15T07:15:11;16.48;;;1.90;;
25107;SDS011;13090;53.422;7.670;2024-01-15T07:20:51;12.90;;;1.88;;
25107;SDS011;13090;53.422;7.670;2024-01-15T07:26:31;8.55;;;1.63;;
25107;SDS011;13090;53.422;7.670;2024-01-15T07:32:13;8.23;;;2.03;;
25107;SDS011;13090;53.422;7.670;2024-01-15T07:37:54;13.20;;;1.77;;
25107;SDS011;13090;53.422;7.670;2024-01-15T07:43:34;7.32;;;1.83;;
25107;SDS011;13090;53.422;7.670;2024-01-15T07:49:16;15.70;;;1.80;;
25107;SDS011;13090;53.422;7.670;2024-01-15T07:54:57;13.68;;;1.58;;
25107;SDS011;13090;53.422;7.670;2024-01-15T08:00:38;6.88;;;1.20;;
25107;SDS011;13090;53.422;7.670;2024-01-15T08:06:20;8.15;;;1.50;;
25107;SDS011;13090;53.422;7.670;2024-01-15T08:12:01;8.43;;;1.20;;
25107;SDS011;13090;53.422;7.670;2024-01-15T08:17:42;5.05;;;1.10;;
25107;SDS011;13090;53.422;7.670;2024-01-15T08:23:24;8.30;;;1.05;;
25107;SDS011;13090;53.422;7.670;2024-01-15T08:29:04;3.53;;;1.20;;
25107;SDS011;13090;53.422;7.670;2024-01-15T08:34:44;4.53;;;1.48;;
25107;SDS011;13090;53.422;7.670;2024-01-15T08:40:26;4.22;;;1.00;;
25107;SDS011;13090;53.422;7.670;2024-01-15T08:46:06;8.30;;;1.20;;
25107;SDS011;13090;53.422;7.670;2024-01-15T08:51:47;9.80;;;3.10;;
25107;SDS011;13090;53.422;7.670;2024-01-15T08:57:29;9.07;;;2.90;;
25107;SDS011;13090;53.422;7.670;2024-01-15T09:03:10;6.70;;;1.50;;
25107;SDS011;13090;53.422;7.670;2024-01-15T09:08:56;7.73;;;1.97;;
25107;SDS011;13090;53.422;7.670;2024-01-15T09:14:38;6.95;;;1.73;;
25107;SDS011;13090;53.422;7.670;2024-01-15T09:20:18;8.00;;;1.75;;
25107;SDS011;13090;53.422;7.670;2024-01-15T09:25:58;9.85;;;2.00;;
25107;SDS011;13090;53.422;7.670;2024-01-15T09:31:41;14.23;;;2.20;;
25107;SDS011;13090;53.422;7.670;2024-01-15T09:37:22;8.55;;;1.77;;
25107;SDS011;13090;53.422;7.670;2024-01-15T09:43:23;13.02;;;2.10;;
25107;SDS011;13090;53.422;7.670;2024-01-15T09:49:04;5.97;;;1.50;;
25107;SDS011;13090;53.422;7.670;2024-01-15T09:54:46;9.23;;;1.50;;
25107;SDS011;13090;53.422;7.670;2024-01-15T10:00:28;8.20;;;1.73;;
25107;SDS011;13090;53.422;7.670;2024-01-15T10:06:11;8.55;;;2.03;;
25107;SDS011;13090;53.422;7.670;2024-01-15T10:11:56;5.43;;;1.83;;
25107;SDS011;13090;53.422;7.670;2024-01-15T10:17:39;6.38;;;1.38;;
25107;SDS011;13090;53.422;7.670;2024-01-15T10:23:22;4.53;;;1.45;;
25107;SDS011;13090;53.422;7.670;2024-01-15T10:29:02;7.55;;;1.80;;
25107;SDS011;13090;53.422;7.670;2024-01-15T10:34:43;7.53;;;1.23;;
25107;SDS011;13090;53.422;7.670;2024-01-15T10:40:25;8.05;;;2.17;;
25107;SDS011;13090;53.422;7.670;2024-01-15T10:46:06;6.70;;;1.80;;
25107;SDS011;13090;53.422;7.670;2024-01-15T10:51:46;7.90;;;2.40;;
25107;SDS011;13090;53.422;7.670;2024-01-15T10:57:29;8.68;;;2.28;;
25107;SDS011;13090;53.422;7.670;2024-01-15T11:03:10;6.85;;;1.80;;
25107;SDS011;13090;53.422;7.670;2024-01-15T11:08:51;9.32;;;1.80;;
25107;SDS011;13090;53.422;7.670;2024-01-15T11:14:38;12.65;;;2.30;;
25107;SDS011;13090;53.422;7.670;2024-01-15T11:20:19;4.25;;;1.73;;
25107;SDS011;13090;53.422;7.670;2024-01-15T11:25:59;8.70;;;1.77;;
25107;SDS011;13090;53.422;7.670;2024-01-15T11:32:00;11.10;;;1.63;;
25107;SDS011;13090;53.422;7.670;2024-01-15T11:37:57;8.77;;;1.90;;
25107;SDS011;13090;53.422;7.670;2024-01-15T11:43:38;8.00;;;2.53;;
25107;SDS011;13090;53.422;7.670;2024-01-15T11:49:22;9.15;;;2.08;;
25107;SDS011;13090;53.422;7.670;2024-01-15T11:55:15;7.95;;;1.83;;
25107;SDS011;13090;53.422;7.670;2024-01-15T12:00:59;5.72;;;1.80;;
25107;SDS011;13090;53.422;7.670;2024-01-15T12:06:41;3.72;;;1.35;;
25107;SDS011;13090;53.422;7.670;2024-01-15T12:12:24;6.65;;;1.20;;
25107;SDS011;13090;53.422;7.670;2024-01-15T12:18:11;6.90;;;2.35;;
25107;SDS011;13090;53.422;7.670;2024-01-15T12:23:54;8.82;;;2.90;;
25107;SDS011;13090;53.422;7.670;2024-01-15T12:29:35;7.68;;;1.58;;
25107;SDS011;13090;53.422;7.670;2024-01-15T12:35:17;3.13;;;1.40;;
25107;SDS011;13090;53.422;7.670;2024-01-15T12:41:01;3.60;;;1.10;;
25107;SDS011;13090;53.422;7.670;2024-01-15T12:46:42;1.40;;;0.55;;
25107;SDS011;13090;53.422;7.670;2024-01-15T12:52:22;4.38;;;1.00;;
25107;SDS011;13090;53.422;7.670;2024-01-15T12:58:04;4.05;;;1.00;;
25107;SDS011;13090;53.422;7.670;2024-01-15T13:03:44;3.97;;;1.10;;
25107;SDS011;13090;53.422;7.670;2024-01-15T13:09:25;7.00;;;1.20;;
25107;SDS011;13090;53.422;7.670;2024-01-15T13:15:07;4.45;;;1.75;;
25107;SDS011;13090;53.422;7.670;2024-01-15T13:20:48;4.75;;;1.10;;
25107;SDS011;13090;53.422;7.670;2024-01-15T13:26:29;3.85;;;1.23;;
25107;SDS011;13090;53.422;7.670;2024-01-15T13:32:12;2.20;;;0.82;;
25107;SDS011;13090;53.422;7.670;2024-01-15T13:37:57;2.58;;;1.20;;
25107;SDS011;13090;53.422;7.670;2024-01-15T13:43:38;4.35;;;1.02;;
25107;SDS011;13090;53.422;7.670;2024-01-15T13:49:20;3.78;;;1.30;;
25107;SDS011;13090;53.422;7.670;2024-01-15T13:55:00;4.03;;;1.30;;
25107;SDS011;13090;53.422;7.670;2024-01-15T14:00:41;2.75;;;1.20;;
25107;SDS011;13090;53.422;7.670;2024-01-15T14:06:22;5.07;;;1.25;;
25107;SDS011;13090;53.422;7.670;2024-01-15T14:12:03;4.60;;;1.75;;
25107;SDS011;13090;53.422;7.670;2024-01-15T14:17:44;2.67;;;1.33;;
25107;SDS011;13090;53.422;7.670;2024-01-15T14:23:26;4.88;;;1.55;;
25107;SDS011;13090;53.422;7.670;2024-01-15T14:29:06;3.50;;;1.30;;
25107;SDS011;13090;53.422;7.670;2024-01-15T14:34:46;5.63;;;1.60;;
25107;SDS011;13090;53.422;7.670;2024-01-15T14:40:29;6.53;;;1.80;;
25107;SDS011;13090;53.422;7.670;2024-01-15T14:46:10;2.58;;;1.30;;
25107;SDS011;13090;53.422;7.670;2024-01-15T14:51:50;4.05;;;1.20;;
25107;SDS011;13090;53.422;7.670;2024-01-15T14:57:32;5.07;;;1.70;;
25107;SDS011;13090;53.422;7.670;2024-01-15T15:03:12;3.10;;;1.25;;
25107;SDS011;13090;53.422;7.670;2024-01-15T15:08:54;3.33;;;1.08;;
25107;SDS011;13090;53.422;7.670;2024-01-15T15:14:39;7.68;;;1.33;;
25107;SDS011;13090;53.422;7.670;2024-01-15T15:20:34;5.45;;;1.15;;
25107;SDS011;13090;53.422;7.670;2024-01-15T15:26:15;7.00;;;1.60;;
25107;SDS011;13090;53.422;7.670;2024-01-15T15:31:57;4.65;;;1.60;;
25107;SDS011;13090;53.422;7.670;2024-01-15T15:37:38;6.60;;;1.20;;
25107;SDS011;13090;53.422;7.670;2024-01-15T15:43:18;4.22;;;1.80;;
25107;SDS011;13090;53.422;7.670;2024-01-15T15:49:00;5.85;;;1.92;;
25107;SDS011;13090;53.422;7.670;2024-01-15T15:54:41;7.13;;;1.48;;
25107;SDS011;13090;53.422;7.670;2024-01-15T16:00:22;3.65;;;1.10;;
25107;SDS011;13090;53.422;7.670;2024-01-15T16:06:04;5.18;;;1.27;;
25107;SDS011;13090;53.422;7.670;2024-01-15T16:11:45;3.58;;;1.00;;
25107;SDS011;13090;53.422;7.670;2024-01-15T16:17:25;4.53;;;0.85;;
25107;SDS011;13090;53.422;7.670;2024-01-15T16:23:28;4.28;;;0.80;;
25107;SDS011;13090;53.422;7.670;2024-01-15T16:29:28;4.65;;;0.95;;
25107;SDS011;13090;53.422;7.670;2024-01-15T16:35:08;5.38;;;0.90;;
25107;SDS011;13090;53.422;7.670;2024-01-15T16:40:51;3.67;;;0.95;;
25107;SDS011;13090;53.422;7.670;2024-01-15T16:46:31;2.50;;;1.40;;
25107;SDS011;13090;53.422;7.670;2024-01-15T16:52:12;1.08;;;0.70;;
25107;SDS011;13090;53.422;7.670;2024-01-15T16:57:54;3.30;;;1.05;;
25107;SDS011;13090;53.422;7.670;2024-01-15T17:03:34;2.30;;;1.10;;
25107;SDS011;13090;53.422;7.670;2024-01-15T17:09:15;4.47;;;1.80;;
25107;SDS011;13090;53.422;7.670;2024-01-15T17:14:57;3.95;;;1.27;;
25107;SDS011;13090;53.422;7.670;2024-01-15T17:20:38;4.50;;;1.60;;
25107;SDS011;13090;53.422;7.670;2024-01-15T17:26:18;3.78;;;1.40;;
25107;SDS011;13090;53.422;7.670;2024-01-15T17:32:00;3.90;;;1.75;;
25107;SDS011;13090;53.422;7.670;2024-01-15T17:37:41;3.65;;;1.77;;
25107;SDS011;13090;53.422;7.670;2024-01-15T17:43:21;3.30;;;1.67;;
25107;SDS011;13090;53.422;7.670;2024-01-15T17:49:03;7.47;;;1.60;;
25107;SDS011;13090;53.422;7.670;2024-01-15T17:54:44;5.65;;;1.98;;
25107;SDS011;13090;53.422;7.670;2024-01-15T18:00:24;8.35;;;3.28;;
25107;SDS011;13090;53.422;7.670;2024-01-15T18:06:06;8.70;;;3.35;;
25107;SDS011;13090;53.422;7.670;2024-01-15T18:11:47;4.20;;;2.10;;
25107;SDS011;13090;53.422;7.670;2024-01-15T18:17:28;6.43;;;2.10;;
25107;SDS011;13090;53.422;7.670;2024-01-15T18:23:11;9.25;;;1.70;;
25107;SDS011;13090;53.422;7.670;2024-01-15T18:28:52;5.55;;;1.42;;
25107;SDS011;13090;53.422;7.670;2024-01-15T18:34:33;10.18;;;1.30;;
25107;SDS011;13090;53.422;7.670;2024-01-15T18:40:16;2.92;;;0.80;;
25107;SDS011;13090;53.422;7.670;2024-01-15T18:45:56;3.92;;;0.98;;
25107;SDS011;13090;53.422;7.670;2024-01-15T18:51:37;6.72;;;0.82;;
25107;SDS011;13090;53.422;7.670;2024-01-15T18:57:19;9.38;;;0.90;;
25107;SDS011;13090;53.422;7.670;2024-01-15T19:03:02;7.05;;;1.35;;
25107;SDS011;13090;53.422;7.670;2024-01-15T19:08:43;5.63;;;1.17;;
25107;SDS011;13090;53.422;7.670;2024-01-15T19:14:25;11.45;;;1.48;;
25107;SDS011;13090;53.422;7.670;2024-01-15T19:20:06;4.18;;;1.15;;
25107;SDS011;13090;53.422;7.670;2024-01-15T19:25:47;5.55;;;1.70;;
25107;SDS011;13090;53.422;7.670;2024-01-15T19:31:29;10.05;;;1.77;;
25107;SDS011;13090;53.422;7.670;2024-01-15T19:37:09;9.73;;;1.65;;
25107;SDS011;13090;53.422;7.670;2024-01-15T19:42:50;8.65;;;1.55;;
25107;SDS011;13090;53.422;7.670;2024-01-15T19:48:32;4.65;;;1.60;;
25107;SDS011;13090;53.422;7.670;2024-01-15T19:54:13;9.75;;;2.22;;
25107;SDS011;13090;53.422;7.670;2024-01-15T19:59:53;7.03;;;1.85;;
25107;SDS011;13090;53.422;7.670;2024-01-15T20:05:35;8.45;;;1.67;;
25107;SDS011;13090;53.422;7.670;2024-01-15T20:11:16;5.88;;;1.50;;
25107;SDS011;13090;53.422;7.670;2024-01-15T20:16:57;11.30;;;2.13;;
25107;SDS011;13090;53.422;7.670;2024-01-15T20:22:39;8.43;;;2.15;;
25107;SDS011;13090;53.422;7.670;2024-01-15T20:28:19;2.38;;;1.10;;
25107;SDS011;13090;53.422;7.670;2024-01-15T20:33:59;7.80;;;1.13;;
25107;SDS011;13090;53.422;7.670;2024-01-15T20:39:41;11.75;;;1.35;;
25107;SDS011;13090;53.422;7.670;2024-01-15T20:45:22;6.85;;;1.58;;
25107;SDS011;13090;53.422;7.670;2024-01-15T20:51:04;7.40;;;1.40;;
25107;SDS011;13090;53.422;7.670;2024-01-15T20:56:45;8.60;;;1.20;;
25107;SDS011;13090;53.422;7.670;2024-01-15T21:02:26;5.80;;;1.17;;
25107;SDS011;13090;53.422;7.670;2024-01-15T21:08:07;8.40;;;1.25;;
25107;SDS011;13090;53.422;7.670;2024-01-15T21:13:48;7.78;;;1.42;;
25107;SDS011;13090;53.422;7.670;2024-01-15T21:19:28;4.05;;;1.30;;
25107;SDS011;13090;53.422;7.670;2024-01-15T21:25:09;3.42;;;0.90;;
25107;SDS011;13090;53.422;7.670;2024-01-15T21:30:51;4.25;;;1.10;;
25107;SDS011;13090;53.422;7.670;2024-01-15T21:36:31;2.58;;;0.73;;
25107;SDS011;13090;53.422;7.670;2024-01-15T21:42:12;4.60;;;1.20;;
25107;SDS011;13090;53.422;7.670;2024-01-15T21:47:56;3.63;;;0.82;;
25107;SDS011;13090;53.422;7.670;2024-01-15T21:53:37;3.45;;;1.25;;
25107;SDS011;13090;53.422;7.670;2024-01-15T21:59:17;3.88;;;1.10;;
25107;SDS011;13090;53.422;7.670;2024-01-15T22:04:59;1.55;;;1.13;;
25107;SDS011;13090;53.422;7.670;2024-01-15T22:10:39;3.33;;;0.90;;
25107;SDS011;13090;53.422;7.670;2024-01-15T22:16:19;7.22;;;1.10;;
25107;SDS011;13090;53.422;7.670;2024-01-15T22:22:01;6.80;;;1.13;;
25107;SDS011;13090;53.422;7.670;2024-01-15T22:27:41;3.60;;;1.08;;
25107;SDS011;13090;53.422;7.670;2024-01-15T22:33:22;7.82;;;1.38;;
25107;SDS011;13090;53.422;7.670;2024-01-15T22:39:04;6.25;;;1.42;;
25107;SDS011;13090;53.422;7.670;2024-01-15T22:44:44;6.70;;;1.70;;
25107;SDS011;13090;53.422;7.670;2024-01-15T22:50:25;5.43;;;1.13;;
25107;SDS011;13090;53.422;7.670;2024-01-15T22:56:07;6.50;;;1.42;;
25107;SDS011;13090;53.422;7.670;2024-01-15T23:01:47;9.75;;;1.65;;
25107;SDS011;13090;53.422;7.670;2024-01-15T23:07:28;3.45;;;1.30;;
25107;SDS011;13090;53.422;7.670;2024-01-15T23:13:11;4.50;;;1.17;;
25107;SDS011;13090;53.422;7.670;2024-01-15T23:18:51;2.33;;;1.00;;
25107;SDS011;13090;53.422;7.670;2024-01-15T23:24:32;3.58;;;0.90;;
25107;SDS011;13090;53.422;7.670;2024-01-15T23:30:13;4.65;;;0.80;;
25107;SDS011;13090;53.422;7.670;2024-01-15T23:35:54;5.00;;;0.80;;
25107;SDS011;13090;53.422;7.670;2024-01-15T23:41:36;3.38;;;0.73;;
25107;SDS011;13090;53.422;7.670;2024-01-15T23:47:18;4.45;;;0.70;;
25107;SDS011;13090;53.422;7.670;2024-01-15T23:52:58;6.60;;;0.90;;
25107;SDS011;13090;53.422;7.670;2024-01-15T23:58:38;4.90;;;0.90;;
